Time;durP1;ratioP1;P1;durP2;ratioP2;P2;SDS_P1;SDS_P2;PMS_P1;PMS_P2;Temp;Humidity;BMP_temperature;BMP_pressure;BME280_temperature;BME280_humidity;BME280_pressure;Samples;Min_cycle;Max_cycle;Signal;HPM_P1;HPM_P2
2023/07/26 00:00:46;;;;;;;8.60;7.78;;;19.30;99.90;;;;;;5031062;28;20034;-73
2023/07/26 00:03:12;;;;;;;9.80;8.95;;;19.20;99.90;;;;;;5030574;28;20045;-72
2023/07/26 00:05:38;;;;;;;11.63;7.65;;;19.20;99.90;;;;;;5031352;28;20077;-73
2023/07/26 00:08:04;;;;;;;9.95;8.73;;;19.20;99.90;;;;;;5030626;28;20030;-73
2023/07/26 00:10:30;;;;;;;12.68;7.35;;;19.20;99.90;;;;;;5031499;28;20037;-73
2023/07/26 00:12:56;;;;;;;10.00;9.05;;;19.20;99.90;;;;;;5031667;28;20061;-73
2023/07/26 00:15:22;;;;;;;10.55;8.70;;;19.10;99.90;;;;;;5030979;28;20029;-73
2023/07/26 00:17:48;;;;;;;9.52;7.63;;;19.10;99.90;;;;;;5031154;28;20030;-73
2023/07/26 00:20:15;;;;;;;12.05;7.57;;;19.10;99.90;;;;;;5031460;28;20036;-73
2023/07/26 00:22:41;;;;;;;12.43;7.50;;;19.00;99.90;;;;;;5031584;28;20045;-73
2023/07/26 00:25:07;;;;;;;12.02;7.88;;;19.00;99.90;;;;;;5031666;28;20026;-73
2023/07/26 00:27:36;;;;;;;14.40;7.22;;;18.90;99.90;;;;;;5031245;28;20045;-73
2023/07/26 00:30:02;;;;;;;11.20;7.93;;;18.90;99.90;;;;;;5031616;28;20397;-73
2023/07/26 00:32:29;;;;;;;9.77;8.82;;;18.90;99.90;;;;;;5032468;28;20402;-73
2023/07/26 00:34:55;;;;;;;9.80;8.30;;;18.80;99.90;;;;;;5033804;28;20462;-73
2023/07/26 00:37:21;;;;;;;11.02;7.97;;;18.80;99.90;;;;;;5033458;28;20034;-73
2023/07/26 00:39:47;;;;;;;13.80;8.70;;;18.80;99.90;;;;;;5033730;28;20029;-73
2023/07/26 00:42:17;;;;;;;10.85;7.20;;;18.70;99.90;;;;;;5034431;28;20029;-73
2023/07/26 00:44:43;;;;;;;10.90;6.15;;;18.70;99.90;;;;;;5034964;28;20034;-73
2023/07/26 00:47:09;;;;;;;11.32;7.15;;;18.70;99.90;;;;;;5033808;28;20041;-73
2023/07/26 00:49:35;;;;;;;10.13;7.22;;;18.70;99.90;;;;;;5033308;28;20056;-73
2023/07/26 00:52:02;;;;;;;12.35;8.65;;;18.70;99.90;;;;;;5034585;28;20033;-73
2023/07/26 00:54:28;;;;;;;10.40;7.50;;;18.60;99.90;;;;;;5033714;28;20036;-73
2023/07/26 00:56:54;;;;;;;13.50;10.02;;;18.60;99.90;;;;;;5033103;28;20080;-73
2023/07/26 00:59:20;;;;;;;10.02;9.10;;;18.60;99.90;;;;;;5032975;28;20060;-73
2023/07/26 01:01:46;;;;;;;13.45;9.32;;;18.60;99.90;;;;;;5032114;28;20029;-73
2023/07/26 01:04:12;;;;;;;13.63;11.98;;;18.60;99.90;;;;;;5033337;28;20048;-73
2023/07/26 01:06:49;;;;;;;12.82;11.35;;;18.60;99.90;;;;;;5032407;28;20037;-72
2023/07/26 01:09:43;;;;;;;9.27;7.72;;;18.50;99.90;;;;;;5033142;28;20047;-73
2023/07/26 01:12:13;;;;;;;12.55;9.88;;;18.50;99.90;;;;;;5033056;28;20033;-73
2023/07/26 01:14:42;;;;;;;10.00;9.00;;;18.50;99.90;;;;;;5033112;28;20025;-72
2023/07/26 01:17:08;;;;;;;12.10;8.00;;;18.50;99.90;;;;;;5032097;28;20029;-73
2023/07/26 01:19:34;;;;;;;11.02;7.32;;;18.50;99.90;;;;;;5032968;28;20033;-73
2023/07/26 01:22:00;;;;;;;13.40;8.02;;;18.50;99.90;;;;;;5032680;28;20033;-73
2023/07/26 01:24:26;;;;;;;11.60;9.23;;;18.40;99.90;;;;;;5032982;28;20040;-73
2023/07/26 01:26:52;;;;;;;12.63;11.35;;;18.40;99.90;;;;;;5033608;28;20372;-73
2023/07/26 01:29:18;;;;;;;15.98;14.43;;;18.40;99.90;;;;;;5034007;28;20036;-73
2023/07/26 01:31:44;;;;;;;15.65;14.15;;;18.40;99.90;;;;;;5033113;28;20487;-73
2023/07/26 01:34:11;;;;;;;12.43;9.52;;;18.30;99.90;;;;;;5032698;28;20037;-73
2023/07/26 01:36:37;;;;;;;13.45;11.20;;;18.30;99.90;;;;;;5032474;28;20421;-73
2023/07/26 01:39:04;;;;;;;12.40;11.50;;;18.30;99.90;;;;;;5032765;28;20041;-73
2023/07/26 01:41:30;;;;;;;13.98;11.43;;;18.30;99.90;;;;;;5015401;28;20029;-73
2023/07/26 01:43:56;;;;;;;13.05;11.70;;;18.20;99.90;;;;;;5032494;28;20049;-73
2023/07/26 01:46:22;;;;;;;15.48;13.18;;;18.20;99.90;;;;;;5014991;28;20072;-73
2023/07/26 01:48:48;;;;;;;13.75;12.38;;;18.20;99.90;;;;;;5032370;28;20467;-74
2023/07/26 01:51:14;;;;;;;11.60;10.38;;;18.20;99.90;;;;;;5033178;28;20060;-73
2023/07/26 01:53:41;;;;;;;15.23;10.63;;;18.10;99.90;;;;;;5033832;28;20033;-73
2023/07/26 01:56:07;;;;;;;14.52;10.82;;;18.10;99.90;;;;;;5033118;28;20525;-73
2023/07/26 01:58:33;;;;;;;10.95;9.60;;;18.10;99.90;;;;;;5031940;28;20049;-73
2023/07/26 02:01:01;;;;;;;14.45;9.77;;;18.00;99.90;;;;;;5027976;28;20037;-73
2023/07/26 02:03:27;;;;;;;11.07;10.10;;;18.00;99.90;;;;;;5021061;28;20037;-73
2023/07/26 02:05:53;;;;;;;12.23;8.85;;;18.00;99.90;;;;;;5010520;28;20045;-73
2023/07/26 02:08:19;;;;;;;12.25;8.93;;;18.00;99.90;;;;;;5020182;28;20037;-73
2023/07/26 02:10:45;;;;;;;13.13;8.30;;;18.00;99.90;;;;;;5031423;28;20045;-73
2023/07/26 02:13:12;;;;;;;12.30;9.18;;;18.00;99.90;;;;;;5031683;28;20044;-73
2023/07/26 02:15:38;;;;;;;17.05;8.18;;;18.00;99.90;;;;;;5029200;28;20040;-75
2023/07/26 02:18:04;;;;;;;11.40;6.90;;;17.90;99.90;;;;;;5031536;28;20033;-75
2023/07/26 02:20:30;;;;;;;11.02;7.65;;;17.80;99.90;;;;;;5030085;28;20048;-75
2023/07/26 02:22:57;;;;;;;11.35;6.70;;;17.80;99.90;;;;;;5031477;28;20032;-75
2023/07/26 02:25:23;;;;;;;11.55;7.85;;;17.70;99.90;;;;;;5029970;28;20049;-75
2023/07/26 02:27:49;;;;;;;13.20;7.72;;;17.70;99.90;;;;;;5031463;28;20074;-75
2023/07/26 02:30:15;;;;;;;12.10;6.80;;;17.70;99.90;;;;;;5030182;28;20038;-75
2023/07/26 02:32:41;;;;;;;12.93;9.05;;;17.70;99.90;;;;;;5030044;28;20021;-75
2023/07/26 02:35:08;;;;;;;11.63;7.07;;;17.70;99.90;;;;;;5030010;28;20041;-75
2023/07/26 02:37:34;;;;;;;12.95;7.15;;;17.70;99.90;;;;;;5031869;28;20021;-75
2023/07/26 02:40:00;;;;;;;9.15;6.45;;;17.70;99.90;;;;;;5031601;28;20036;-75
2023/07/26 02:42:27;;;;;;;14.20;6.72;;;17.70;99.90;;;;;;5032454;28;20421;-75
2023/07/26 02:44:53;;;;;;;12.90;6.93;;;17.60;99.90;;;;;;5032249;28;20053;-76
2023/07/26 02:47:19;;;;;;;7.88;6.03;;;17.70;99.90;;;;;;5031741;28;20033;-75
2023/07/26 02:49:46;;;;;;;11.43;6.28;;;17.60;99.90;;;;;;5032462;28;20052;-75
2023/07/26 02:52:12;;;;;;;11.25;6.93;;;17.60;99.90;;;;;;5030427;28;20090;-75
2023/07/26 02:54:38;;;;;;;10.07;6.50;;;17.60;99.90;;;;;;5032487;28;20356;-75
2023/07/26 02:57:05;;;;;;;7.75;5.68;;;17.50;99.90;;;;;;5032120;28;20033;-75
2023/07/26 02:59:31;;;;;;;14.20;5.72;;;17.50;99.90;;;;;;5032199;28;20379;-75
2023/07/26 03:01:57;;;;;;;13.00;5.93;;;17.50;99.90;;;;;;5031596;28;20041;-75
2023/07/26 03:04:23;;;;;;;8.98;6.50;;;17.40;99.90;;;;;;5031148;28;20037;-76
2023/07/26 03:06:50;;;;;;;9.35;6.50;;;17.40;99.90;;;;;;5032052;28;20053;-75
2023/07/26 03:09:17;;;;;;;7.40;6.70;;;17.40;99.90;;;;;;5031321;28;20497;-75
2023/07/26 03:11:43;;;;;;;11.48;6.70;;;17.40;99.90;;;;;;5031644;28;20034;-74
2023/07/26 03:14:09;;;;;;;12.02;7.20;;;17.30;99.90;;;;;;5032285;28;20025;-75
2023/07/26 03:16:35;;;;;;;9.60;8.68;;;17.30;99.90;;;;;;5030155;28;20030;-75
2023/07/26 03:19:01;;;;;;;11.80;10.70;;;17.40;99.90;;;;;;5032445;28;20025;-75
2023/07/26 03:21:27;;;;;;;15.60;9.70;;;17.30;99.90;;;;;;5030605;28;20029;-75
2023/07/26 03:23:53;;;;;;;10.45;8.40;;;17.30;99.90;;;;;;5030979;28;20075;-75
2023/07/26 03:26:19;;;;;;;10.20;8.73;;;17.30;99.90;;;;;;5030422;28;20037;-74
2023/07/26 03:28:46;;;;;;;11.38;9.15;;;17.30;99.90;;;;;;5030796;28;20040;-75
2023/07/26 03:31:12;;;;;;;13.10;8.35;;;17.30;99.90;;;;;;5031378;28;20049;-74
2023/07/26 03:33:38;;;;;;;11.02;9.30;;;17.20;99.90;;;;;;5031912;28;20390;-75
2023/07/26 03:36:04;;;;;;;10.02;9.10;;;17.20;99.90;;;;;;5031621;28;20037;-75
2023/07/26 03:38:30;;;;;;;14.63;9.18;;;17.20;99.90;;;;;;5030897;28;20033;-75
2023/07/26 03:40:56;;;;;;;12.93;9.23;;;17.20;99.90;;;;;;5031359;28;20026;-75
2023/07/26 03:43:22;;;;;;;13.73;9.93;;;17.20;99.90;;;;;;5030841;28;20030;-75
2023/07/26 03:45:49;;;;;;;13.02;8.98;;;17.20;99.90;;;;;;5029982;28;20414;-75
2023/07/26 03:48:15;;;;;;;18.80;9.27;;;17.20;99.90;;;;;;5032013;28;20394;-75
2023/07/26 03:50:41;;;;;;;12.95;8.82;;;17.20;99.90;;;;;;5031705;28;20042;-75
2023/07/26 03:53:07;;;;;;;11.13;7.65;;;17.10;99.90;;;;;;5032082;28;20029;-76
2023/07/26 03:55:33;;;;;;;13.27;8.27;;;17.10;99.90;;;;;;5031271;28;20068;-75
2023/07/26 03:57:59;;;;;;;11.07;7.70;;;17.10;99.90;;;;;;5030597;28;20032;-75
2023/07/26 04:00:25;;;;;;;13.85;7.85;;;17.00;99.90;;;;;;5031218;28;20029;-75
2023/07/26 04:02:51;;;;;;;12.88;8.23;;;17.00;99.90;;;;;;5031697;28;20025;-75
2023/07/26 04:05:18;;;;;;;11.43;8.00;;;17.00;99.90;;;;;;5034532;28;20516;-75
2023/07/26 04:07:44;;;;;;;14.50;7.82;;;17.00;99.90;;;;;;5034422;28;20044;-75
2023/07/26 04:10:10;;;;;;;18.15;8.60;;;17.00;99.90;;;;;;5033676;28;20034;-75
2023/07/26 04:12:36;;;;;;;15.95;8.73;;;17.00;99.90;;;;;;5035279;28;20056;-75
2023/07/26 04:15:03;;;;;;;17.80;8.20;;;17.00;99.90;;;;;;5034063;28;20040;-73
2023/07/26 04:17:29;;;;;;;11.80;9.35;;;16.90;99.90;;;;;;5035190;28;20367;-75
2023/07/26 04:19:55;;;;;;;14.25;8.52;;;16.90;99.90;;;;;;5035343;28;20034;-75
2023/07/26 04:22:21;;;;;;;15.80;8.07;;;17.00;99.90;;;;;;5035394;28;20056;-75
2023/07/26 04:24:47;;;;;;;15.02;10.60;;;17.00;99.90;;;;;;5033725;28;20038;-75
2023/07/26 04:27:13;;;;;;;15.95;10.05;;;16.90;99.90;;;;;;5035125;28;20052;-76
2023/07/26 04:29:41;;;;;;;16.05;9.85;;;16.90;99.90;;;;;;5035134;28;20022;-75
2023/07/26 04:32:08;;;;;;;13.10;9.80;;;16.80;99.90;;;;;;5033224;28;20132;-75
2023/07/26 04:34:34;;;;;;;13.27;8.98;;;16.80;99.90;;;;;;5035293;28;20038;-74
2023/07/26 04:37:00;;;;;;;12.55;9.10;;;16.80;99.90;;;;;;5034059;28;20387;-75
2023/07/26 04:39:26;;;;;;;10.65;9.35;;;16.80;99.90;;;;;;5034677;28;20041;-75
2023/07/26 04:41:53;;;;;;;13.77;9.02;;;16.90;99.90;;;;;;5035070;28;20029;-74
2023/07/26 04:44:19;;;;;;;9.93;8.95;;;16.80;99.90;;;;;;5017219;28;20414;-76
2023/07/26 04:46:45;;;;;;;12.25;9.63;;;16.80;99.90;;;;;;5033194;28;20030;-76
2023/07/26 04:49:11;;;;;;;10.60;9.48;;;16.80;99.90;;;;;;5034902;28;20363;-75
2023/07/26 04:51:37;;;;;;;15.07;10.38;;;16.80;99.90;;;;;;5016912;28;20050;-75
2023/07/26 04:54:05;;;;;;;12.88;9.32;;;16.80;99.90;;;;;;5034467;28;20052;-75
2023/07/26 04:56:31;;;;;;;13.43;9.02;;;16.80;99.90;;;;;;5034829;28;20482;-75
2023/07/26 04:58:57;;;;;;;14.07;9.70;;;16.80;99.90;;;;;;5034979;28;20037;-75
2023/07/26 05:01:23;;;;;;;12.55;10.88;;;16.80;99.90;;;;;;5033159;28;20041;-75
2023/07/26 05:03:49;;;;;;;15.02;13.48;;;16.80;99.90;;;;;;5033481;28;20037;-75
2023/07/26 05:06:16;;;;;;;13.73;12.43;;;16.80;99.90;;;;;;5034364;28;20398;-75
2023/07/26 05:08:42;;;;;;;15.60;14.15;;;16.90;99.90;;;;;;5034130;28;20032;-75
2023/07/26 05:11:08;;;;;;;18.77;12.52;;;16.90;99.90;;;;;;5034467;28;20030;-75
2023/07/26 05:13:34;;;;;;;15.18;12.25;;;16.90;99.90;;;;;;5034431;28;20045;-75
2023/07/26 05:16:00;;;;;;;11.13;8.10;;;16.90;99.90;;;;;;5031808;28;20395;-75
2023/07/26 05:18:26;;;;;;;13.43;9.13;;;16.90;99.90;;;;;;5033169;28;20033;-75
2023/07/26 05:20:52;;;;;;;11.65;8.95;;;17.00;99.90;;;;;;5033262;28;20104;-75
2023/07/26 05:23:18;;;;;;;10.93;9.82;;;17.00;99.90;;;;;;5033836;28;20424;-75
2023/07/26 05:25:44;;;;;;;13.52;9.70;;;17.00;99.90;;;;;;5033065;28;20490;-75
2023/07/26 05:28:10;;;;;;;12.00;8.80;;;17.10;99.90;;;;;;5032931;28;20032;-75
2023/07/26 05:30:38;;;;;;;14.13;7.80;;;17.20;99.90;;;;;;5032411;28;20029;-74
2023/07/26 05:33:05;;;;;;;10.48;9.35;;;17.30;99.90;;;;;;5033026;28;20030;-75
2023/07/26 05:35:31;;;;;;;15.15;8.48;;;17.40;99.90;;;;;;5033810;28;20030;-75
2023/07/26 05:37:58;;;;;;;13.00;8.27;;;17.50;99.90;;;;;;5033614;28;20026;-75
2023/07/26 05:40:24;;;;;;;14.27;7.85;;;17.60;99.90;;;;;;5034033;28;20048;-75
2023/07/26 05:42:50;;;;;;;10.38;7.88;;;17.70;99.90;;;;;;5033800;28;20025;-75
2023/07/26 05:45:16;;;;;;;11.32;8.13;;;17.80;99.90;;;;;;5032050;28;20049;-75
2023/07/26 05:47:43;;;;;;;11.63;8.27;;;18.00;99.90;;;;;;5032605;28;20025;-75
2023/07/26 05:50:12;;;;;;;10.82;8.50;;;18.20;99.90;;;;;;5033548;28;20061;-73
2023/07/26 05:52:38;;;;;;;11.50;8.80;;;18.40;99.90;;;;;;5032241;28;20032;-73
2023/07/26 05:55:06;;;;;;;16.58;13.85;;;18.60;99.90;;;;;;5032542;28;20029;-75
2023/07/26 05:57:32;;;;;;;12.43;11.23;;;18.60;99.90;;;;;;5034464;28;20029;-75
2023/07/26 05:59:59;;;;;;;13.43;10.45;;;18.20;99.90;;;;;;5032292;28;20036;-75
2023/07/26 06:02:25;;;;;;;11.85;10.23;;;17.80;99.90;;;;;;5033143;28;20478;-75
2023/07/26 06:04:52;;;;;;;15.73;9.15;;;17.80;99.90;;;;;;5033450;28;20037;-75
2023/07/26 06:07:18;;;;;;;16.05;8.60;;;17.70;99.90;;;;;;5031853;28;20382;-75
2023/07/26 06:09:44;;;;;;;11.43;8.23;;;17.60;99.90;;;;;;5032152;28;20033;-75
2023/07/26 06:12:10;;;;;;;11.20;7.90;;;17.30;99.90;;;;;;5032137;28;20489;-74
2023/07/26 06:14:37;;;;;;;9.65;8.15;;;17.10;99.90;;;;;;5032070;28;20033;-75
2023/07/26 06:17:03;;;;;;;15.75;8.05;;;17.00;99.90;;;;;;5032807;28;20037;-75
2023/07/26 06:19:30;;;;;;;13.82;8.20;;;17.10;99.90;;;;;;5031834;28;20037;-74
2023/07/26 06:21:56;;;;;;;11.95;9.05;;;17.30;99.90;;;;;;5032752;28;20021;-75
2023/07/26 06:24:23;;;;;;;15.73;8.45;;;17.40;99.90;;;;;;5033048;28;20033;-75
2023/07/26 06:26:51;;;;;;;14.02;8.18;;;17.40;99.90;;;;;;5032935;28;20424;-75
2023/07/26 06:29:17;;;;;;;12.68;8.20;;;17.50;99.90;;;;;;5033000;28;20371;-75
2023/07/26 06:31:43;;;;;;;11.55;8.02;;;17.50;99.90;;;;;;5031445;28;20036;-75
2023/07/26 06:34:09;;;;;;;13.68;7.70;;;17.70;99.90;;;;;;5015234;28;20056;-75
2023/07/26 06:36:35;;;;;;;14.43;7.88;;;17.90;99.90;;;;;;5032444;28;20033;-74
2023/07/26 06:39:01;;;;;;;14.75;8.68;;;18.10;99.90;;;;;;5031487;28;20044;-75
2023/07/26 06:41:28;;;;;;;13.57;8.95;;;18.00;99.90;;;;;;5014670;28;20045;-75
2023/07/26 06:43:54;;;;;;;14.85;8.40;;;17.70;99.90;;;;;;5032787;28;20042;-75
2023/07/26 06:46:20;;;;;;;11.30;8.48;;;17.50;99.90;;;;;;5032240;28;20376;-75
2023/07/26 06:48:46;;;;;;;11.20;8.27;;;17.50;99.90;;;;;;5031424;28;20029;-75
2023/07/26 06:51:12;;;;;;;14.68;8.73;;;17.50;99.90;;;;;;5032204;28;20060;-73
2023/07/26 06:53:38;;;;;;;12.68;8.43;;;17.60;99.90;;;;;;5032537;28;20410;-75
2023/07/26 06:56:05;;;;;;;17.55;8.20;;;17.80;99.90;;;;;;5031441;28;20376;-74
2023/07/26 06:58:31;;;;;;;9.60;8.50;;;18.10;99.90;;;;;;5032485;28;20041;-75
2023/07/26 07:00:58;;;;;;;14.10;8.63;;;18.40;99.90;;;;;;5030983;28;20029;-75
2023/07/26 07:03:24;;;;;;;12.73;9.65;;;18.60;99.90;;;;;;5032018;28;20033;-75
2023/07/26 07:05:50;;;;;;;14.05;9.93;;;18.70;99.90;;;;;;5030604;28;20041;-75
2023/07/26 07:08:16;;;;;;;12.48;9.43;;;18.80;99.90;;;;;;5032296;28;20025;-75
2023/07/26 07:10:42;;;;;;;12.05;9.52;;;18.70;99.90;;;;;;5030970;28;20037;-74
2023/07/26 07:13:08;;;;;;;15.82;10.13;;;18.70;99.90;;;;;;5031276;28;20017;-75
2023/07/26 07:15:34;;;;;;;14.00;10.77;;;18.60;99.90;;;;;;5013853;28;20068;-74
2023/07/26 07:18:00;;;;;;;14.82;10.73;;;18.70;99.90;;;;;;5031060;28;20026;-75
2023/07/26 07:20:26;;;;;;;13.38;11.25;;;18.90;99.90;;;;;;5030514;28;20105;-75
2023/07/26 07:22:52;;;;;;;14.40;11.38;;;19.10;99.90;;;;;;5014337;28;20041;-75
2023/07/26 07:25:18;;;;;;;14.43;11.48;;;19.30;99.90;;;;;;5030580;28;20052;-75
2023/07/26 07:27:45;;;;;;;15.02;11.52;;;19.30;99.90;;;;;;5031019;28;20393;-75
2023/07/26 07:30:11;;;;;;;14.82;10.95;;;19.10;99.90;;;;;;5031327;28;20029;-75
2023/07/26 07:32:37;;;;;;;13.70;11.52;;;19.30;99.90;;;;;;5031956;28;20025;-75
2023/07/26 07:35:05;;;;;;;15.77;11.85;;;19.50;99.90;;;;;;5030600;28;20033;-75
2023/07/26 07:37:31;;;;;;;14.68;11.98;;;19.70;99.90;;;;;;5031605;28;20037;-75
2023/07/26 07:39:57;;;;;;;18.55;12.65;;;19.80;99.90;;;;;;5033552;28;20033;-75
2023/07/26 07:42:23;;;;;;;14.63;13.23;;;19.90;99.90;;;;;;5035929;28;20037;-75
2023/07/26 07:44:49;;;;;;;14.65;12.73;;;19.90;99.90;;;;;;5035835;28;20102;-75
2023/07/26 07:47:16;;;;;;;14.73;13.25;;;19.70;99.90;;;;;;5033368;28;20096;-75
2023/07/26 07:49:42;;;;;;;13.80;12.30;;;19.30;99.90;;;;;;5035731;28;20517;-75
2023/07/26 07:52:08;;;;;;;13.68;12.07;;;19.40;99.90;;;;;;5035506;28;20029;-75
2023/07/26 07:54:34;;;;;;;12.60;11.40;;;19.60;99.90;;;;;;5034856;28;20025;-74
2023/07/26 07:57:00;;;;;;;13.85;12.13;;;19.70;99.90;;;;;;5034298;28;20033;-75
2023/07/26 07:59:26;;;;;;;14.45;13.05;;;20.00;99.90;;;;;;5035733;28;20382;-75
2023/07/26 08:01:52;;;;;;;17.10;15.57;;;20.10;99.90;;;;;;5034604;28;20037;-74
2023/07/26 08:04:18;;;;;;;17.98;16.17;;;20.20;99.90;;;;;;5035523;28;20360;-75
2023/07/26 08:06:44;;;;;;;18.55;16.83;;;20.20;99.90;;;;;;5035188;28;20041;-75
2023/07/26 08:09:10;;;;;;;18.38;16.85;;;20.10;99.90;;;;;;5034518;28;20036;-75
2023/07/26 08:11:36;;;;;;;21.30;19.58;;;20.10;99.90;;;;;;5034036;28;20033;-75
2023/07/26 08:14:03;;;;;;;22.08;20.42;;;20.10;99.90;;;;;;5017538;28;20048;-75
2023/07/26 08:16:29;;;;;;;21.17;19.45;;;20.10;99.90;;;;;;5032662;28;20037;-75
2023/07/26 08:18:57;;;;;;;19.73;18.10;;;20.30;99.90;;;;;;5035336;28;20466;-75
2023/07/26 08:21:23;;;;;;;18.27;16.58;;;20.30;99.90;;;;;;5033880;28;20036;-75
2023/07/26 08:23:50;;;;;;;16.85;15.25;;;20.30;99.90;;;;;;5034198;28;20458;-75
2023/07/26 08:26:16;;;;;;;13.40;10.07;;;20.50;99.90;;;;;;5034862;28;20045;-75
2023/07/26 08:28:42;;;;;;;14.13;10.80;;;20.70;99.90;;;;;;5035189;28;20462;-75
2023/07/26 08:31:08;;;;;;;15.35;11.30;;;20.90;99.90;;;;;;5034176;28;20045;-76
2023/07/26 08:33:34;;;;;;;13.63;12.18;;;21.00;99.90;;;;;;5035259;28;20049;-75
2023/07/26 08:36:00;;;;;;;16.17;13.45;;;21.20;99.90;;;;;;5033468;28;20379;-75
2023/07/26 08:38:26;;;;;;;17.58;15.93;;;21.30;99.90;;;;;;5033997;28;20022;-76
2023/07/26 08:40:53;;;;;;;19.48;17.50;;;21.50;99.90;;;;;;5034661;28;20037;-76
2023/07/26 08:43:19;;;;;;;17.80;16.27;;;21.60;99.90;;;;;;5033723;28;20033;-75
2023/07/26 08:45:45;;;;;;;16.55;14.90;;;21.80;99.90;;;;;;5032651;28;20052;-76
2023/07/26 08:48:11;;;;;;;16.55;15.05;;;21.90;99.90;;;;;;5033611;28;20041;-75
2023/07/26 08:50:41;;;;;;;16.42;15.00;;;22.00;99.90;;;;;;5031927;28;20434;-75
2023/07/26 08:53:07;;;;;;;18.25;16.35;;;22.10;99.90;;;;;;5035215;28;20470;-75
2023/07/26 08:55:34;;;;;;;19.05;16.73;;;22.20;99.90;;;;;;5033121;28;20033;-76
2023/07/26 08:58:00;;;;;;;18.02;16.27;;;22.30;99.90;;;;;;5033446;28;20470;-75
2023/07/26 09:00:26;;;;;;;17.60;15.90;;;22.30;99.90;;;;;;5015881;28;20041;-75
2023/07/26 09:02:55;;;;;;;20.23;18.25;;;22.30;99.90;;;;;;5033463;28;20037;-75
2023/07/26 09:05:21;;;;;;;22.65;20.55;;;22.40;99.90;;;;;;5032975;28;20037;-75
2023/07/26 09:07:51;;;;;;;27.02;24.92;;;22.30;99.90;;;;;;5016545;28;20036;-75
2023/07/26 09:10:30;;;;;;;17.77;16.00;;;22.40;99.90;;;;;;5034180;28;20021;-76
2023/07/26 09:13:13;;;;;;;19.70;17.90;;;22.30;99.90;;;;;;5033157;28;20034;-75
2023/07/26 09:15:41;;;;;;;17.52;16.23;;;22.30;99.90;;;;;;5031915;28;20046;-75
2023/07/26 09:18:08;;;;;;;19.00;17.42;;;22.40;99.90;;;;;;5033169;28;20040;-76
2023/07/26 09:20:35;;;;;;;15.52;14.13;;;22.50;99.90;;;;;;5032918;28;20451;-75
2023/07/26 09:23:04;;;;;;;23.63;21.52;;;22.50;99.90;;;;;;5032985;28;20038;-75
2023/07/26 09:25:34;;;;;;;19.45;17.65;;;22.60;99.90;;;;;;5033785;28;21043;-75
2023/07/26 09:28:04;;;;;;;16.45;14.88;;;22.60;99.90;;;;;;5033967;28;20044;-75
2023/07/26 09:30:33;;;;;;;18.50;16.77;;;22.70;99.90;;;;;;5033247;28;20038;-75
2023/07/26 09:33:00;;;;;;;17.90;16.40;;;22.60;99.90;;;;;;5033963;28;20431;-76
2023/07/26 09:35:26;;;;;;;17.95;16.48;;;22.60;99.90;;;;;;5032512;28;20040;-76
2023/07/26 09:37:52;;;;;;;19.92;16.33;;;22.60;99.90;;;;;;5032830;28;20459;-75
2023/07/26 09:40:30;;;;;;;16.33;14.98;;;22.60;99.90;;;;;;5032254;28;20044;-75
2023/07/26 09:42:57;;;;;;;17.70;16.17;;;22.70;99.90;;;;;;5032711;28;20025;-75
2023/07/26 09:45:24;;;;;;;17.73;16.10;;;22.70;99.90;;;;;;5032593;28;20044;-75
2023/07/26 09:47:51;;;;;;;17.15;15.70;;;22.60;99.90;;;;;;5033830;28;20036;-76
2023/07/26 09:50:25;;;;;;;17.58;16.23;;;22.60;99.90;;;;;;5032046;28;20042;-76
2023/07/26 09:52:55;;;;;;;16.83;15.15;;;22.50;99.90;;;;;;5032498;28;20057;-75
2023/07/26 09:55:22;;;;;;;16.63;14.98;;;22.60;99.90;;;;;;5032295;28;20028;-76
2023/07/26 09:57:49;;;;;;;15.40;14.30;;;22.60;99.90;;;;;;5032092;28;20038;-75
2023/07/26 10:00:15;;;;;;;18.55;16.90;;;22.70;99.90;;;;;;5031546;28;20029;-76
2023/07/26 10:02:41;;;;;;;17.55;16.17;;;22.80;99.90;;;;;;5031753;28;20033;-75
2023/07/26 10:05:07;;;;;;;14.68;13.68;;;22.80;99.90;;;;;;5031998;28;20049;-76
2023/07/26 10:07:33;;;;;;;14.95;13.80;;;22.80;99.90;;;;;;5031563;28;20422;-75
2023/07/26 10:10:01;;;;;;;15.90;14.93;;;22.70;99.90;;;;;;5031782;28;20487;-75
2023/07/26 10:12:29;;;;;;;18.70;17.38;;;22.70;99.90;;;;;;5031427;28;20017;-75
2023/07/26 10:14:58;;;;;;;21.95;20.42;;;22.80;99.90;;;;;;5031952;28;20479;-75
2023/07/26 10:17:25;;;;;;;19.48;17.98;;;22.80;99.90;;;;;;5031293;28;20044;-75
2023/07/26 10:19:51;;;;;;;21.70;20.15;;;22.80;99.90;;;;;;5031991;28;20033;-75
2023/07/26 10:22:17;;;;;;;23.88;21.85;;;22.80;99.90;;;;;;5015040;28;20037;-76
2023/07/26 10:24:43;;;;;;;31.02;28.73;;;22.70;99.90;;;;;;5031816;28;20029;-76
2023/07/26 10:27:10;;;;;;;51.50;48.33;;;22.60;99.90;;;;;;5031218;28;20033;-75
2023/07/26 10:29:36;;;;;;;31.77;29.58;;;22.50;99.90;;;;;;5031771;28;20418;-75
2023/07/26 10:32:03;;;;;;;32.75;30.40;;;22.50;99.90;;;;;;5030985;28;20034;-75
2023/07/26 10:34:30;;;;;;;28.88;26.65;;;22.60;99.90;;;;;;5033104;28;20032;-76
2023/07/26 10:36:56;;;;;;;26.38;24.48;;;22.70;99.90;;;;;;5031353;28;20527;-75
2023/07/26 10:39:34;;;;;;;35.65;33.28;;;22.70;99.90;;;;;;5031509;28;20041;-75
2023/07/26 10:42:02;;;;;;;33.83;31.33;;;22.80;99.90;;;;;;5031941;28;20394;-75
2023/07/26 10:44:28;;;;;;;26.33;24.52;;;22.90;99.90;;;;;;5031335;28;20037;-75
2023/07/26 10:47:01;;;;;;;32.05;29.77;;;23.00;99.90;;;;;;5030831;28;20509;-76
2023/07/26 10:49:28;;;;;;;55.75;52.42;;;23.00;99.90;;;;;;5032388;28;20378;-75
2023/07/26 10:52:04;;;;;;;86.78;82.30;;;23.20;99.90;;;;;;5031269;28;20356;-75
2023/07/26 10:54:44;;;;;;;87.13;82.63;;;23.20;99.90;;;;;;5031534;28;20033;-76
2023/07/26 10:57:23;;;;;;;39.50;36.85;;;23.30;99.90;;;;;;5032021;28;20046;-75
2023/07/26 10:59:50;;;;;;;47.85;44.78;;;23.30;99.90;;;;;;5031429;28;20041;-76
2023/07/26 11:02:39;;;;;;;68.32;64.45;;;23.20;99.90;;;;;;5031679;28;20042;-76
2023/07/26 11:05:09;;;;;;;54.95;51.65;;;23.10;99.90;;;;;;5032371;28;20235;-75
2023/07/26 11:07:58;;;;;;;118.50;112.10;;;23.00;99.90;;;;;;5031243;28;20040;-76
2023/07/26 11:10:34;;;;;;;155.90;147.95;;;22.80;99.90;;;;;;5031765;28;20303;-75
2023/07/26 11:13:28;;;;;;;115.97;110.03;;;22.80;99.90;;;;;;5031908;28;20025;-75
2023/07/26 11:15:54;;;;;;;129.30;122.57;;;22.80;99.90;;;;;;5014212;28;20040;-75
2023/07/26 11:18:20;;;;;;;139.38;132.23;;;22.90;99.90;;;;;;5031145;28;20029;-76
2023/07/26 11:20:52;;;;;;;29.40;27.58;;;22.80;99.90;;;;;;5030664;28;20029;-75
2023/07/26 11:23:19;;;;;;;75.10;70.75;;;23.00;99.90;;;;;;5030719;28;20041;-75
2023/07/26 11:25:56;;;;;;;85.80;81.03;;;22.70;99.90;;;;;;5031716;28;20053;-75
2023/07/26 11:28:24;;;;;;;23.63;21.90;;;22.60;99.90;;;;;;5031001;28;20037;-75
2023/07/26 11:30:54;;;;;;;24.92;23.00;;;22.80;99.90;;;;;;5030154;28;20029;-75
2023/07/26 11:33:33;;;;;;;18.90;17.40;;;23.10;99.90;;;;;;5030891;28;20041;-75
2023/07/26 11:36:00;;;;;;;22.02;20.45;;;23.30;99.90;;;;;;5030395;28;20272;-75
2023/07/26 11:38:27;;;;;;;18.95;17.58;;;23.30;99.90;;;;;;5032042;28;20029;-75
2023/07/26 11:40:53;;;;;;;18.08;16.63;;;23.50;99.90;;;;;;5013306;28;20041;-75
2023/07/26 11:43:20;;;;;;;16.55;15.13;;;23.40;99.90;;;;;;5030882;28;20026;-76
2023/07/26 11:45:47;;;;;;;17.52;16.13;;;23.40;99.90;;;;;;5031161;28;20041;-76
2023/07/26 11:48:14;;;;;;;16.50;15.10;;;23.50;99.90;;;;;;5030597;28;20029;-76
2023/07/26 11:50:40;;;;;;;20.90;19.20;;;23.70;99.90;;;;;;5030353;28;20045;-75
2023/07/26 11:53:13;;;;;;;19.67;18.20;;;23.40;99.90;;;;;;5030631;28;20471;-76
2023/07/26 11:55:40;;;;;;;19.23;17.83;;;23.50;99.90;;;;;;5031473;28;20076;-75
2023/07/26 11:58:08;;;;;;;19.17;17.88;;;23.70;99.90;;;;;;5030777;28;20026;-75
2023/07/26 12:00:36;;;;;;;23.38;21.67;;;23.60;99.90;;;;;;5029724;28;20042;-74
2023/07/26 12:03:05;;;;;;;25.73;23.98;;;23.40;99.90;;;;;;5030812;28;20021;-75
2023/07/26 12:05:31;;;;;;;27.33;25.13;;;23.50;99.90;;;;;;5014004;28;20056;-75
2023/07/26 12:08:05;;;;;;;17.63;16.50;;;23.40;99.90;;;;;;5031829;28;20029;-75
2023/07/26 12:10:34;;;;;;;17.55;16.40;;;23.40;99.90;;;;;;5029826;28;20489;-75
2023/07/26 12:13:01;;;;;;;19.38;18.08;;;23.50;99.90;;;;;;5014302;28;20044;-75
2023/07/26 12:15:27;;;;;;;21.92;20.42;;;23.50;99.90;;;;;;5029696;28;20565;-75
2023/07/26 12:17:59;;;;;;;24.52;22.73;;;23.60;99.90;;;;;;5031526;28;20040;-74
2023/07/26 12:20:26;;;;;;;30.65;28.85;;;23.60;99.90;;;;;;5030234;28;20032;-75
2023/07/26 12:22:52;;;;;;;38.28;36.33;;;23.50;99.90;;;;;;5030151;28;20493;-75
2023/07/26 12:25:19;;;;;;;32.20;30.23;;;23.60;99.90;;;;;;5031706;28;20045;-75
2023/07/26 12:27:49;;;;;;;32.53;30.75;;;23.70;99.90;;;;;;5035364;28;20029;-75
2023/07/26 12:30:18;;;;;;;23.35;21.85;;;23.80;99.90;;;;;;5033174;28;20044;-75